createdAt,value
2023-02-19T00:00:23.807Z,5.93
2023-02-19T00:01:23.798Z,5.90
2023-02-19T00:02:23.820Z,5.97
2023-02-19T00:03:44.843Z,5.94
2023-02-19T00:04:23.871Z,5.86
2023-02-19T00:05:23.769Z,5.87
2023-02-19T00:06:23.741Z,5.90
2023-02-19T00:07:23.732Z,5.91
2023-02-19T00:08:23.721Z,5.89
2023-02-19T00:09:44.719Z,5.90
2023-02-19T00:10:23.700Z,5.97
2023-02-19T00:11:23.696Z,5.90
2023-02-19T00:12:23.676Z,5.86
2023-02-19T00:13:23.669Z,5.86
2023-02-19T00:14:23.659Z,5.86
2023-02-19T00:15:44.704Z,5.86
2023-02-19T00:16:23.636Z,5.84
2023-02-19T00:17:23.622Z,5.91
2023-02-19T00:18:23.629Z,5.86
2023-02-19T00:19:23.604Z,5.90
2023-02-19T00:20:23.592Z,5.76
2023-02-19T00:21:44.585Z,5.89
2023-02-19T00:22:23.575Z,5.84
2023-02-19T00:23:23.618Z,5.75
2023-02-19T00:24:23.550Z,5.76
2023-02-19T00:25:23.541Z,5.90
2023-02-19T00:26:23.592Z,5.82
2023-02-19T00:27:44.534Z,5.84
2023-02-19T00:28:23.506Z,5.82
2023-02-19T00:29:23.495Z,5.86
2023-02-19T00:30:23.622Z,5.79
2023-02-19T00:31:23.685Z,5.79
2023-02-19T00:32:23.506Z,5.73
2023-02-19T00:33:44.457Z,5.83
2023-02-19T00:34:23.447Z,5.69
2023-02-19T00:35:23.436Z,5.72
2023-02-19T00:36:23.500Z,5.75
2023-02-19T00:37:23.415Z,5.80
2023-02-19T00:38:23.406Z,5.73
2023-02-19T00:39:44.396Z,5.69
2023-02-19T00:40:23.382Z,5.79
2023-02-19T00:41:23.364Z,5.71
2023-02-19T00:42:23.371Z,5.75
2023-02-19T00:43:23.346Z,5.75
2023-02-19T00:44:23.338Z,5.72
2023-02-19T00:45:44.332Z,5.73
2023-02-19T00:46:23.442Z,5.72
2023-02-19T00:47:23.301Z,5.65
2023-02-19T00:48:23.291Z,5.68
2023-02-19T00:49:23.319Z,5.72
2023-02-19T00:50:23.270Z,5.71
2023-02-19T00:51:44.267Z,5.57
2023-02-19T00:52:23.245Z,5.61
2023-02-19T00:53:23.239Z,5.71
2023-02-19T00:54:23.223Z,5.61
2023-02-19T00:55:23.221Z,5.64
2023-02-19T00:56:23.208Z,5.61
2023-02-19T00:57:44.196Z,5.68
2023-02-19T00:58:23.186Z,5.73
2023-02-19T00:59:23.182Z,5.71
2023-02-19T01:00:23.168Z,5.64
2023-02-19T01:01:23.220Z,5.66
2023-02-19T01:02:23.139Z,5.68
2023-02-19T01:03:44.144Z,5.59
2023-02-19T01:04:23.138Z,5.59
2023-02-19T01:05:23.104Z,5.72
2023-02-19T01:06:23.104Z,5.59
2023-02-19T01:07:23.080Z,5.64
2023-02-19T01:08:23.078Z,5.66
2023-02-19T01:09:44.060Z,5.72
2023-02-19T01:10:23.039Z,5.66
2023-02-19T01:11:23.030Z,5.66
2023-02-19T01:12:23.018Z,5.68
2023-02-19T01:13:23.010Z,5.62
2023-02-19T01:14:22.994Z,5.66
2023-02-19T01:15:44.038Z,5.71
2023-02-19T01:16:23.021Z,5.59
2023-02-19T01:17:22.963Z,5.69
2023-02-19T01:18:22.949Z,5.65
2023-02-19T01:19:22.944Z,5.62
2023-02-19T01:20:22.935Z,5.64
2023-02-19T01:21:43.923Z,5.65
2023-02-19T01:22:22.902Z,5.56
2023-02-19T01:23:22.892Z,5.54
2023-02-19T01:24:22.880Z,5.53
2023-02-19T01:25:22.871Z,5.51
2023-02-19T01:26:22.864Z,5.54
2023-02-19T01:27:43.882Z,5.53
2023-02-19T01:28:22.836Z,5.41
2023-02-19T01:29:22.826Z,5.41
2023-02-19T01:30:22.880Z,5.44
2023-02-19T01:31:22.980Z,5.46
2023-02-19T01:32:22.828Z,5.43
2023-02-19T01:33:43.783Z,5.50
2023-02-19T01:34:22.766Z,5.46
2023-02-19T01:35:22.782Z,5.44
2023-02-19T01:36:22.750Z,5.36
2023-02-19T01:37:22.738Z,5.47
2023-02-19T01:38:22.727Z,5.44
2023-02-19T01:39:43.717Z,5.39
2023-02-19T01:40:22.697Z,5.43
2023-02-19T01:41:22.691Z,5.39
2023-02-19T01:42:22.673Z,5.44
2023-02-19T01:43:22.671Z,5.39
2023-02-19T01:44:22.650Z,5.35
2023-02-19T01:45:43.670Z,5.35
2023-02-19T01:46:22.649Z,5.36
2023-02-19T01:47:22.618Z,5.32
2023-02-19T01:48:22.608Z,5.32
2023-02-19T01:49:22.602Z,5.38
2023-02-19T01:50:22.586Z,5.26
2023-02-19T01:51:43.581Z,5.29
2023-02-19T01:52:22.560Z,5.28
2023-02-19T01:53:22.555Z,5.29
2023-02-19T01:54:22.542Z,5.30
2023-02-19T01:55:22.544Z,5.26
2023-02-19T01:56:22.514Z,5.21
2023-02-19T01:57:43.526Z,5.21
2023-02-19T01:58:22.490Z,5.21
2023-02-19T01:59:22.491Z,5.23
2023-02-19T02:00:22.469Z,5.20
2023-02-19T02:01:22.480Z,5.12
2023-02-19T02:02:22.448Z,5.17
2023-02-19T02:03:43.442Z,5.18
2023-02-19T02:04:22.426Z,5.20
2023-02-19T02:05:22.426Z,5.14
2023-02-19T02:06:22.398Z,5.14
2023-02-19T02:07:22.392Z,5.08
2023-02-19T02:08:22.394Z,5.08
2023-02-19T02:09:43.368Z,5.08
2023-02-19T02:10:22.392Z,5.12
2023-02-19T02:11:22.345Z,5.12
2023-02-19T02:12:22.330Z,5.07
2023-02-19T02:13:22.326Z,5.10
2023-02-19T02:14:22.307Z,5.11
2023-02-19T02:15:43.304Z,5.00
2023-02-19T02:16:22.300Z,4.97
2023-02-19T02:17:22.280Z,4.93
2023-02-19T02:18:22.261Z,4.97
2023-02-19T02:19:22.253Z,4.97
2023-02-19T02:20:22.239Z,5.00
2023-02-19T02:21:43.238Z,5.02
2023-02-19T02:22:22.218Z,4.97
2023-02-19T02:23:22.203Z,5.08
2023-02-19T02:24:22.192Z,5.00
2023-02-19T02:25:22.186Z,5.02
2023-02-19T02:26:22.171Z,4.90
2023-02-19T02:27:43.174Z,4.94
2023-02-19T02:28:22.181Z,4.97
2023-02-19T02:29:22.140Z,4.93
2023-02-19T02:30:22.146Z,5.05
2023-02-19T02:31:22.241Z,4.97
2023-02-19T02:32:22.104Z,4.97
2023-02-19T02:33:43.108Z,4.99
2023-02-19T02:34:22.078Z,4.94
2023-02-19T02:35:22.072Z,4.99
2023-02-19T02:36:22.054Z,4.97
2023-02-19T02:37:22.055Z,4.99
2023-02-19T02:38:22.028Z,5.00
2023-02-19T02:39:43.033Z,5.04
2023-02-19T02:40:22.010Z,5.00
2023-02-19T02:41:21.997Z,5.04
2023-02-19T02:42:21.985Z,4.97
2023-02-19T02:43:21.977Z,4.94
2023-02-19T02:44:21.960Z,4.92
2023-02-19T02:45:42.984Z,4.97
2023-02-19T02:46:21.930Z,4.97
2023-02-19T02:47:21.932Z,4.87
2023-02-19T02:48:21.915Z,5.00
2023-02-19T02:49:21.904Z,4.94
2023-02-19T02:50:21.885Z,4.94
2023-02-19T02:51:42.884Z,5.02
2023-02-19T02:52:21.863Z,4.92
2023-02-19T02:53:21.860Z,4.92
2023-02-19T02:54:21.845Z,4.94
2023-02-19T02:55:21.837Z,4.94
2023-02-19T02:56:21.816Z,4.89
2023-02-19T02:57:42.841Z,4.90
2023-02-19T02:58:21.793Z,4.89
2023-02-19T02:59:21.783Z,4.87
2023-02-19T03:00:21.780Z,4.75
2023-02-19T03:01:21.795Z,4.82
2023-02-19T03:02:21.763Z,4.90
2023-02-19T03:03:42.753Z,4.89
2023-02-19T03:04:21.723Z,4.87
2023-02-19T03:05:21.714Z,4.78
2023-02-19T03:06:21.702Z,4.90
2023-02-19T03:07:21.690Z,4.84
2023-02-19T03:08:21.677Z,4.74
2023-02-19T03:09:42.685Z,4.86
2023-02-19T03:10:21.652Z,4.73
2023-02-19T03:11:21.642Z,4.73
2023-02-19T03:12:21.629Z,4.73
2023-02-19T03:13:21.623Z,4.74
2023-02-19T03:14:21.615Z,4.77
2023-02-19T03:15:42.603Z,4.68
2023-02-19T03:16:21.635Z,4.74
2023-02-19T03:17:21.569Z,4.74
2023-02-19T03:18:21.556Z,4.71
2023-02-19T03:19:21.543Z,4.73
2023-02-19T03:20:21.532Z,4.71
2023-02-19T03:21:42.535Z,4.66
2023-02-19T03:22:21.537Z,4.68
2023-02-19T03:23:21.541Z,4.70
2023-02-19T03:24:21.483Z,4.68
2023-02-19T03:25:21.470Z,4.68
2023-02-19T03:26:21.464Z,4.68
2023-02-19T03:27:43.031Z,4.62
2023-02-19T03:28:21.441Z,4.56
2023-02-19T03:29:21.422Z,4.45
2023-02-19T03:30:21.477Z,4.48
2023-02-19T03:31:21.486Z,4.40
2023-02-19T03:32:21.439Z,4.32
2023-02-19T03:33:42.377Z,4.31
2023-02-19T03:34:21.360Z,4.34
2023-02-19T03:35:21.349Z,4.24
2023-02-19T03:36:21.335Z,4.28
2023-02-19T03:37:21.326Z,4.23
2023-02-19T03:38:21.321Z,4.23
2023-02-19T03:39:42.310Z,4.14
2023-02-19T03:40:21.285Z,4.22
2023-02-19T03:41:21.277Z,4.13
2023-02-19T03:42:21.263Z,4.10
2023-02-19T03:43:21.252Z,4.23
2023-02-19T03:44:21.236Z,4.05
2023-02-19T03:45:42.237Z,4.14
2023-02-19T03:46:21.214Z,4.10
2023-02-19T03:47:21.201Z,4.13
2023-02-19T03:48:21.191Z,4.10
2023-02-19T03:49:21.172Z,4.06
2023-02-19T03:50:21.170Z,4.04
2023-02-19T03:51:42.151Z,4.05
2023-02-19T03:52:21.143Z,4.02
2023-02-19T03:53:21.125Z,3.95
2023-02-19T03:54:21.115Z,3.99
2023-02-19T03:55:21.102Z,4.08
2023-02-19T03:56:21.093Z,3.99
2023-02-19T03:57:42.081Z,4.06
2023-02-19T03:58:21.069Z,4.02
2023-02-19T03:59:21.052Z,3.95
2023-02-19T04:00:21.043Z,3.99
2023-02-19T04:01:21.026Z,3.91
2023-02-19T04:02:21.111Z,3.95
2023-02-19T04:03:42.010Z,3.92
2023-02-19T04:04:21.039Z,3.99
2023-02-19T04:05:20.980Z,3.95
2023-02-19T04:06:20.979Z,3.92
2023-02-19T04:07:20.962Z,3.96
2023-02-19T04:08:20.944Z,3.99
2023-02-19T04:09:41.937Z,4.01
2023-02-19T04:10:20.924Z,3.92
2023-02-19T04:11:20.906Z,3.91
2023-02-19T04:12:20.897Z,3.92
2023-02-19T04:13:20.980Z,3.83
2023-02-19T04:14:20.901Z,3.92
2023-02-19T04:15:41.874Z,3.96
2023-02-19T04:16:20.883Z,3.87
2023-02-19T04:17:20.873Z,3.80
2023-02-19T04:18:20.824Z,3.81
2023-02-19T04:19:20.807Z,3.86
2023-02-19T04:20:20.812Z,3.80
2023-02-19T04:21:41.785Z,3.83
2023-02-19T04:22:20.772Z,3.73
2023-02-19T04:23:20.757Z,3.78
2023-02-19T04:24:20.747Z,3.76
2023-02-19T04:25:20.732Z,3.70
2023-02-19T04:26:20.722Z,3.80
2023-02-19T04:27:41.715Z,3.73
2023-02-19T04:28:20.691Z,3.74
2023-02-19T04:29:20.684Z,3.77
2023-02-19T04:30:20.704Z,3.66
2023-02-19T04:31:20.854Z,3.65
2023-02-19T04:32:20.714Z,3.68
2023-02-19T04:33:41.648Z,3.65
2023-02-19T04:34:20.625Z,3.76
2023-02-19T04:35:20.605Z,3.62
2023-02-19T04:36:20.624Z,3.62
2023-02-19T04:37:20.665Z,3.66
2023-02-19T04:38:20.598Z,3.66
2023-02-19T04:39:41.580Z,3.63
2023-02-19T04:40:20.537Z,3.60
2023-02-19T04:41:20.529Z,3.60
2023-02-19T04:42:20.524Z,3.59
2023-02-19T04:43:20.501Z,3.59
2023-02-19T04:44:20.487Z,3.62
2023-02-19T04:45:41.476Z,3.58
2023-02-19T04:46:20.492Z,3.56
2023-02-19T04:47:20.446Z,3.45
2023-02-19T04:48:20.434Z,3.60
2023-02-19T04:49:20.424Z,3.50
2023-02-19T04:50:20.415Z,3.47
2023-02-19T04:51:41.421Z,3.58
2023-02-19T04:52:20.384Z,3.48
2023-02-19T04:53:20.371Z,3.40
2023-02-19T04:54:20.357Z,3.41
2023-02-19T04:55:20.347Z,3.40
2023-02-19T04:56:20.334Z,3.45
2023-02-19T04:57:41.366Z,3.48
2023-02-19T04:58:20.308Z,3.51
2023-02-19T04:59:20.301Z,3.50
2023-02-19T05:00:20.298Z,3.55
2023-02-19T05:01:20.449Z,3.44
2023-02-19T05:02:20.266Z,3.42
2023-02-19T05:03:41.288Z,3.41
2023-02-19T05:04:20.259Z,3.29
2023-02-19T05:05:20.223Z,3.34
2023-02-19T05:06:20.204Z,3.41
2023-02-19T05:07:20.199Z,3.34
2023-02-19T05:08:20.185Z,3.34
2023-02-19T05:09:41.182Z,3.32
2023-02-19T05:10:20.152Z,3.34
2023-02-19T05:11:20.153Z,3.29
2023-02-19T05:12:20.128Z,3.34
2023-02-19T05:13:20.138Z,3.36
2023-02-19T05:14:20.105Z,3.31
2023-02-19T05:15:41.139Z,3.40
2023-02-19T05:16:20.077Z,3.34
2023-02-19T05:17:20.070Z,3.28
2023-02-19T05:18:20.051Z,3.25
2023-02-19T05:19:20.038Z,3.36
2023-02-19T05:20:20.029Z,3.28
2023-02-19T05:21:41.046Z,3.21
2023-02-19T05:22:20.005Z,3.26
2023-02-19T05:23:19.988Z,3.34
2023-02-19T05:24:19.973Z,3.32
2023-02-19T05:25:19.964Z,3.23
2023-02-19T05:26:19.948Z,3.29
2023-02-19T05:27:40.943Z,3.25
2023-02-19T05:28:19.926Z,3.25
2023-02-19T05:29:19.911Z,3.31
2023-02-19T05:30:19.927Z,3.32
2023-02-19T05:31:19.971Z,3.29
2023-02-19T05:32:19.871Z,3.36
2023-02-19T05:33:40.869Z,3.21
2023-02-19T05:34:19.843Z,3.32
2023-02-19T05:35:19.834Z,3.16
2023-02-19T05:36:19.818Z,3.23
2023-02-19T05:37:19.816Z,3.29
2023-02-19T05:38:19.791Z,3.23
2023-02-19T05:39:40.794Z,3.25
2023-02-19T05:40:19.769Z,3.32
2023-02-19T05:41:19.758Z,3.28
2023-02-19T05:42:19.741Z,3.22
2023-02-19T05:43:19.734Z,3.32
2023-02-19T05:44:19.721Z,3.29
2023-02-19T05:45:40.708Z,3.19
2023-02-19T05:46:19.762Z,3.25
2023-02-19T05:47:19.715Z,3.32
2023-02-19T05:48:19.662Z,3.26
2023-02-19T05:49:19.653Z,3.26
2023-02-19T05:50:19.641Z,3.22
2023-02-19T05:51:40.643Z,3.19
2023-02-19T05:52:19.612Z,3.28
2023-02-19T05:53:19.604Z,3.25
2023-02-19T05:54:19.590Z,3.26
2023-02-19T05:55:19.575Z,3.29
2023-02-19T05:56:19.563Z,3.25
2023-02-19T05:57:43.145Z,3.32
2023-02-19T05:58:19.546Z,3.26
2023-02-19T05:59:19.528Z,3.32
2023-02-19T06:00:19.524Z,3.16
2023-02-19T06:01:19.501Z,3.26
2023-02-19T06:02:19.483Z,3.21
2023-02-19T06:03:40.517Z,3.32
2023-02-19T06:04:19.457Z,3.31
2023-02-19T06:05:19.450Z,3.29
2023-02-19T06:06:19.447Z,3.25
2023-02-19T06:07:19.439Z,3.36
2023-02-19T06:08:19.411Z,3.29
2023-02-19T06:09:40.401Z,3.16
2023-02-19T06:10:19.378Z,3.28
2023-02-19T06:11:19.376Z,3.26
2023-02-19T06:12:19.360Z,3.25
2023-02-19T06:13:19.346Z,3.25
2023-02-19T06:14:19.328Z,3.29
2023-02-19T06:15:40.325Z,3.21
2023-02-19T06:16:19.361Z,3.28
2023-02-19T06:17:19.295Z,3.28
2023-02-19T06:18:19.277Z,3.31
2023-02-19T06:19:19.276Z,3.25
2023-02-19T06:20:19.256Z,3.26
2023-02-19T06:21:40.250Z,3.31
2023-02-19T06:22:19.227Z,3.32
2023-02-19T06:23:19.221Z,3.31
2023-02-19T06:24:19.210Z,3.37
2023-02-19T06:25:19.211Z,3.32
2023-02-19T06:26:19.184Z,3.28
2023-02-19T06:27:40.176Z,3.36
2023-02-19T06:28:19.155Z,3.28
2023-02-19T06:29:19.144Z,3.25
2023-02-19T06:30:19.165Z,3.26
2023-02-19T06:31:19.190Z,3.22
2023-02-19T06:32:19.238Z,3.26
2023-02-19T06:33:40.104Z,3.31
2023-02-19T06:34:19.079Z,3.29
2023-02-19T06:35:19.073Z,3.29
2023-02-19T06:36:19.057Z,3.32
2023-02-19T06:37:19.050Z,3.31
2023-02-19T06:38:19.032Z,3.28
2023-02-19T06:39:40.034Z,3.37
2023-02-19T06:40:19.004Z,3.25
2023-02-19T06:41:19.016Z,3.23
2023-02-19T06:42:19.266Z,3.37
2023-02-19T06:43:19.185Z,3.32
2023-02-19T06:44:18.958Z,3.31
2023-02-19T06:45:39.954Z,3.37
2023-02-19T06:46:18.968Z,3.41
2023-02-19T06:47:18.920Z,3.44
2023-02-19T06:48:18.911Z,3.40
2023-02-19T06:49:18.896Z,3.41
2023-02-19T06:50:18.899Z,3.37
2023-02-19T06:51:39.929Z,3.47
2023-02-19T06:52:18.879Z,3.44
2023-02-19T06:53:18.844Z,3.44
2023-02-19T06:54:18.848Z,3.45
2023-02-19T06:55:18.841Z,3.48
2023-02-19T06:56:18.812Z,3.50
2023-02-19T06:57:39.796Z,3.56
2023-02-19T06:58:18.785Z,3.45
2023-02-19T06:59:18.782Z,3.58
2023-02-19T07:00:18.765Z,3.62
2023-02-19T07:01:18.811Z,3.66
2023-02-19T07:02:18.734Z,3.69
2023-02-19T07:03:39.725Z,3.74
2023-02-19T07:04:18.766Z,3.65
2023-02-19T07:05:18.703Z,3.62
2023-02-19T07:06:18.765Z,3.76
2023-02-19T07:07:18.667Z,3.73
2023-02-19T07:08:18.667Z,3.70
2023-02-19T07:09:39.644Z,3.69
2023-02-19T07:10:18.638Z,3.86
2023-02-19T07:11:18.682Z,3.70
2023-02-19T07:12:18.616Z,3.86
2023-02-19T07:13:18.590Z,3.74
2023-02-19T07:14:18.581Z,3.83
2023-02-19T07:15:39.593Z,3.88
2023-02-19T07:16:18.575Z,3.76
2023-02-19T07:17:18.543Z,3.78
2023-02-19T07:18:18.554Z,3.83
2023-02-19T07:19:18.535Z,3.87
2023-02-19T07:20:18.510Z,3.92
2023-02-19T07:21:39.498Z,3.88
2023-02-19T07:22:18.484Z,3.92
2023-02-19T07:23:18.470Z,3.94
2023-02-19T07:24:18.459Z,3.95
2023-02-19T07:25:18.444Z,3.96
2023-02-19T07:26:18.435Z,3.92
2023-02-19T07:27:39.428Z,3.95
2023-02-19T07:28:18.414Z,3.99
2023-02-19T07:29:18.396Z,4.04
2023-02-19T07:30:18.425Z,4.06
2023-02-19T07:31:18.471Z,4.06
2023-02-19T07:32:18.363Z,4.08
2023-02-19T07:33:39.368Z,4.05
2023-02-19T07:34:18.337Z,3.95
2023-02-19T07:35:18.321Z,4.04
2023-02-19T07:36:18.348Z,4.04
2023-02-19T07:37:18.313Z,4.02
2023-02-19T07:38:18.333Z,3.95
2023-02-19T07:39:39.281Z,3.99
2023-02-19T07:40:18.272Z,4.01
2023-02-19T07:41:18.259Z,4.05
2023-02-19T07:42:18.249Z,3.99
2023-02-19T07:43:18.229Z,4.06
2023-02-19T07:44:18.234Z,4.02
2023-02-19T07:45:39.253Z,4.04
2023-02-19T07:46:18.242Z,4.01
2023-02-19T07:47:18.180Z,4.06
2023-02-19T07:48:18.194Z,4.05
2023-02-19T07:49:18.156Z,4.05
2023-02-19T07:50:18.156Z,4.02
2023-02-19T07:51:39.138Z,4.05
2023-02-19T07:52:18.125Z,4.06
2023-02-19T07:53:18.123Z,4.06
2023-02-19T07:54:18.106Z,4.06
2023-02-19T07:55:18.087Z,4.04
2023-02-19T07:56:18.085Z,4.08
2023-02-19T07:57:39.063Z,4.08
2023-02-19T07:58:18.168Z,4.02
2023-02-19T07:59:18.044Z,4.06
2023-02-19T08:00:18.029Z,4.04
2023-02-19T08:01:18.322Z,4.14
2023-02-19T08:02:18.069Z,4.14
2023-02-19T08:03:39.064Z,4.14
2023-02-19T08:04:17.989Z,4.10
2023-02-19T08:05:17.962Z,4.16
2023-02-19T08:06:17.957Z,4.22
2023-02-19T08:07:17.940Z,4.13
2023-02-19T08:08:17.949Z,4.05
2023-02-19T08:09:38.918Z,4.05
2023-02-19T08:10:17.905Z,4.19
2023-02-19T08:11:17.890Z,4.17
2023-02-19T08:12:17.886Z,4.13
2023-02-19T08:13:17.872Z,4.17
2023-02-19T08:14:17.857Z,4.14
2023-02-19T08:15:38.844Z,4.13
2023-02-19T08:16:26.653Z,4.14
2023-02-19T08:17:17.849Z,4.12
2023-02-19T08:18:17.807Z,4.16
2023-02-19T08:19:17.788Z,4.06
2023-02-19T08:20:17.781Z,3.99
2023-02-19T08:21:38.801Z,4.14
2023-02-19T08:22:17.755Z,4.01
2023-02-19T08:23:17.740Z,4.08
2023-02-19T08:24:17.730Z,4.02
2023-02-19T08:25:17.716Z,4.05
2023-02-19T08:26:17.708Z,4.04
2023-02-19T08:27:38.696Z,4.05
2023-02-19T08:28:17.727Z,4.02
2023-02-19T08:29:17.668Z,4.04
2023-02-19T08:30:17.712Z,4.06
2023-02-19T08:31:17.753Z,4.12
2023-02-19T08:32:17.630Z,4.10
2023-02-19T08:33:38.620Z,4.13
2023-02-19T08:34:17.606Z,4.22
2023-02-19T08:35:17.591Z,4.20
2023-02-19T08:36:17.586Z,4.13
2023-02-19T08:37:17.568Z,4.14
2023-02-19T08:38:17.615Z,4.22
2023-02-19T08:39:38.547Z,4.20
2023-02-19T08:40:17.531Z,4.30
2023-02-19T08:41:17.517Z,4.26
2023-02-19T08:42:17.510Z,4.30
2023-02-19T08:43:17.505Z,4.48
2023-02-19T08:44:17.482Z,4.42
2023-02-19T08:45:38.477Z,4.44
2023-02-19T08:46:17.504Z,4.49
2023-02-19T08:47:17.449Z,4.45
2023-02-19T08:48:17.427Z,4.56
2023-02-19T08:49:17.459Z,4.59
2023-02-19T08:50:17.406Z,4.55
2023-02-19T08:51:38.398Z,4.66
2023-02-19T08:52:17.381Z,4.71
2023-02-19T08:53:17.370Z,4.75
2023-02-19T08:54:17.351Z,4.78
2023-02-19T08:55:17.346Z,4.97
2023-02-19T08:56:17.356Z,4.94
2023-02-19T08:57:38.323Z,4.86
2023-02-19T08:58:17.301Z,4.90
2023-02-19T08:59:17.292Z,4.86
2023-02-19T09:00:17.412Z,4.71
2023-02-19T09:01:17.317Z,4.73
2023-02-19T09:02:17.262Z,4.80
2023-02-19T09:03:38.252Z,4.80
2023-02-19T09:04:17.269Z,4.77
2023-02-19T09:05:17.218Z,4.71
2023-02-19T09:06:17.205Z,4.74
2023-02-19T09:07:17.191Z,4.77
2023-02-19T09:08:17.176Z,4.84
2023-02-19T09:09:38.199Z,4.84
2023-02-19T09:10:17.157Z,4.97
2023-02-19T09:11:17.219Z,5.00
2023-02-19T09:12:17.128Z,4.93
2023-02-19T09:13:17.118Z,4.97
2023-02-19T09:14:17.105Z,5.00
2023-02-19T09:15:38.196Z,4.96
2023-02-19T09:16:17.091Z,5.02
2023-02-19T09:17:17.069Z,5.00
2023-02-19T09:18:17.057Z,5.00
2023-02-19T09:19:17.048Z,4.94
2023-02-19T09:20:17.032Z,5.10
2023-02-19T09:21:38.034Z,5.14
2023-02-19T09:22:17.021Z,5.20
2023-02-19T09:23:17.133Z,5.25
2023-02-19T09:24:16.991Z,5.20
2023-02-19T09:25:16.983Z,5.20
2023-02-19T09:26:16.961Z,5.25
2023-02-19T09:27:37.962Z,5.26
2023-02-19T09:28:16.951Z,5.23
2023-02-19T09:29:16.943Z,5.29
2023-02-19T09:30:16.954Z,5.35
2023-02-19T09:31:17.120Z,5.28
2023-02-19T09:32:19.353Z,5.33
2023-02-19T09:33:38.032Z,5.35
2023-02-19T09:34:16.867Z,5.32
2023-02-19T09:35:16.863Z,5.41
2023-02-19T09:36:16.848Z,5.43
2023-02-19T09:37:16.840Z,5.47
2023-02-19T09:38:16.820Z,5.46
2023-02-19T09:39:37.820Z,5.56
2023-02-19T09:40:16.810Z,5.51
2023-02-19T09:41:16.788Z,5.50
2023-02-19T09:42:16.884Z,5.65
2023-02-19T09:43:16.776Z,5.53
2023-02-19T09:44:16.750Z,5.64
2023-02-19T09:45:37.741Z,5.62
2023-02-19T09:46:16.789Z,5.68
2023-02-19T09:47:16.713Z,5.62
2023-02-19T09:48:16.745Z,5.54
2023-02-19T09:49:16.697Z,5.53
2023-02-19T09:50:16.683Z,5.51
2023-02-19T09:51:37.686Z,5.68
2023-02-19T09:52:16.665Z,5.65
2023-02-19T09:53:16.653Z,5.47
2023-02-19T09:54:16.637Z,5.64
2023-02-19T09:55:16.617Z,5.56
2023-02-19T09:56:16.611Z,5.51
2023-02-19T09:57:37.599Z,5.51
2023-02-19T09:58:16.586Z,5.57
2023-02-19T09:59:16.571Z,5.51
2023-02-19T10:00:16.560Z,5.65
2023-02-19T10:01:16.699Z,5.66
2023-02-19T10:02:16.537Z,5.69
2023-02-19T10:03:37.541Z,5.73
2023-02-19T10:04:16.515Z,5.79
2023-02-19T10:05:16.575Z,5.90
2023-02-19T10:06:16.493Z,5.98
2023-02-19T10:07:16.496Z,6.05
2023-02-19T10:08:16.465Z,5.98
2023-02-19T10:09:37.456Z,5.91
2023-02-19T10:10:16.443Z,5.90
2023-02-19T10:11:16.430Z,6.01
2023-02-19T10:12:16.469Z,6.01
2023-02-19T10:13:16.404Z,5.91
2023-02-19T10:14:16.394Z,5.93
2023-02-19T10:15:37.411Z,6.01
2023-02-19T10:16:16.432Z,5.98
2023-02-19T10:17:16.354Z,5.94
2023-02-19T10:18:16.354Z,6.02
2023-02-19T10:19:16.446Z,6.07
2023-02-19T10:20:16.351Z,6.07
2023-02-19T10:21:37.314Z,6.09
2023-02-19T10:22:16.303Z,6.20
2023-02-19T10:23:16.291Z,6.09
2023-02-19T10:24:16.278Z,6.11
2023-02-19T10:25:16.270Z,6.16
2023-02-19T10:26:16.255Z,5.99
2023-02-19T10:27:37.255Z,6.07
2023-02-19T10:28:16.232Z,6.24
2023-02-19T10:29:16.231Z,6.20
2023-02-19T10:30:16.261Z,6.20
2023-02-19T10:31:16.858Z,6.17
2023-02-19T10:32:16.238Z,5.98
2023-02-19T10:33:37.188Z,5.99
2023-02-19T10:34:16.171Z,5.91
2023-02-19T10:35:16.161Z,6.05
2023-02-19T10:36:16.145Z,6.02
2023-02-19T10:37:16.131Z,6.05
2023-02-19T10:38:16.122Z,6.19
2023-02-19T10:39:37.116Z,6.26
2023-02-19T10:40:16.215Z,6.30
2023-02-19T10:41:16.088Z,6.26
2023-02-19T10:42:16.080Z,6.30
2023-02-19T10:43:16.098Z,6.26
2023-02-19T10:44:16.729Z,6.20
2023-02-19T10:45:37.043Z,6.28
2023-02-19T10:46:16.124Z,6.30
2023-02-19T10:47:16.187Z,6.11
2023-02-19T10:48:16.232Z,6.16
2023-02-19T10:49:16.152Z,6.22
2023-02-19T10:50:16.001Z,6.12
2023-02-19T10:51:36.978Z,6.11
2023-02-19T10:52:15.961Z,6.26
2023-02-19T10:53:15.950Z,6.22
2023-02-19T10:54:15.937Z,6.19
2023-02-19T10:55:15.936Z,6.24
2023-02-19T10:56:15.936Z,6.22
2023-02-19T10:57:36.903Z,6.26
2023-02-19T10:58:15.912Z,6.20
2023-02-19T10:59:15.886Z,6.26
2023-02-19T11:00:15.886Z,6.30
2023-02-19T11:01:15.881Z,6.24
2023-02-19T11:02:15.850Z,6.28
2023-02-19T11:03:36.846Z,6.30
2023-02-19T11:04:15.848Z,6.22
2023-02-19T11:05:15.814Z,6.36
2023-02-19T11:06:15.799Z,6.39
2023-02-19T11:07:15.784Z,6.41
2023-02-19T11:08:15.804Z,6.31
2023-02-19T11:09:36.769Z,6.39
2023-02-19T11:10:15.755Z,6.38
2023-02-19T11:11:15.740Z,6.49
2023-02-19T11:12:15.768Z,6.45
2023-02-19T11:13:15.725Z,6.48
2023-02-19T11:14:15.717Z,6.56
2023-02-19T11:15:36.701Z,6.63
2023-02-19T11:16:15.749Z,6.63
2023-02-19T11:17:15.672Z,6.62
2023-02-19T11:18:15.666Z,6.67
2023-02-19T11:19:15.651Z,6.82
2023-02-19T11:20:15.651Z,6.69
2023-02-19T11:21:36.640Z,6.78
2023-02-19T11:22:15.739Z,6.82
2023-02-19T11:23:15.636Z,6.72
2023-02-19T11:24:15.596Z,6.67
2023-02-19T11:25:15.588Z,6.67
2023-02-19T11:26:15.687Z,6.74
2023-02-19T11:27:37.037Z,6.78
2023-02-19T11:28:15.551Z,6.82
2023-02-19T11:29:15.551Z,6.88
2023-02-19T11:30:15.611Z,7.02
2023-02-19T11:31:16.006Z,7.07
2023-02-19T11:32:15.560Z,7.20
2023-02-19T11:33:36.496Z,7.31
2023-02-19T11:34:15.483Z,7.32
2023-02-19T11:35:15.480Z,7.40
2023-02-19T11:36:15.468Z,7.39
2023-02-19T11:37:15.468Z,7.29
2023-02-19T11:38:15.530Z,7.28
2023-02-19T11:39:36.560Z,7.18
2023-02-19T11:40:15.464Z,7.28
2023-02-19T11:41:15.444Z,7.14
2023-02-19T11:42:15.399Z,7.24
2023-02-19T11:43:15.385Z,7.28
2023-02-19T11:44:15.378Z,7.10
2023-02-19T11:45:36.374Z,7.18
2023-02-19T11:46:15.410Z,7.29
2023-02-19T11:47:15.350Z,7.31
2023-02-19T11:48:15.338Z,7.45
2023-02-19T11:49:15.324Z,7.40
2023-02-19T11:50:15.312Z,7.48
2023-02-19T11:51:36.311Z,7.53
2023-02-19T11:52:15.291Z,7.45
2023-02-19T11:53:15.281Z,7.45
2023-02-19T11:54:15.267Z,7.51
2023-02-19T11:55:15.256Z,7.54
2023-02-19T11:56:15.247Z,7.51
2023-02-19T11:57:36.241Z,7.47
2023-02-19T11:58:15.225Z,7.48
2023-02-19T11:59:15.211Z,7.57
2023-02-19T12:00:15.202Z,7.40
2023-02-19T12:01:15.201Z,7.35
2023-02-19T12:02:15.253Z,7.54
2023-02-19T12:03:36.173Z,7.35
2023-02-19T12:04:15.163Z,7.13
2023-02-19T12:05:15.174Z,7.05
2023-02-19T12:06:15.135Z,6.97
2023-02-19T12:07:16.831Z,6.87
2023-02-19T12:08:15.116Z,6.78
2023-02-19T12:09:36.106Z,6.81
2023-02-19T12:10:15.107Z,6.74
2023-02-19T12:11:15.077Z,6.70
2023-02-19T12:12:15.070Z,6.57
2023-02-19T12:13:15.060Z,6.67
2023-02-19T12:14:15.047Z,6.52
2023-02-19T12:15:36.059Z,6.62
2023-02-19T12:16:15.129Z,6.59
2023-02-19T12:17:15.010Z,6.63
2023-02-19T12:18:15.001Z,6.75
2023-02-19T12:19:14.994Z,6.66
2023-02-19T12:20:14.979Z,6.79
2023-02-19T12:21:35.967Z,6.78
2023-02-19T12:22:14.967Z,6.89
2023-02-19T12:23:14.947Z,6.96
2023-02-19T12:24:14.940Z,7.05
2023-02-19T12:25:14.919Z,7.10
2023-02-19T12:26:14.917Z,7.11
2023-02-19T12:27:35.900Z,7.20
2023-02-19T12:28:14.889Z,7.33
2023-02-19T12:29:14.880Z,7.43
2023-02-19T12:30:14.928Z,7.57
2023-02-19T12:31:14.919Z,7.56
2023-02-19T12:32:15.207Z,7.63
2023-02-19T12:33:35.839Z,7.63
2023-02-19T12:34:14.823Z,7.67
2023-02-19T12:35:14.828Z,7.67
2023-02-19T12:36:14.802Z,7.70
2023-02-19T12:37:14.794Z,7.58
2023-02-19T12:38:14.784Z,7.60
2023-02-19T12:39:35.771Z,7.53
2023-02-19T12:40:14.798Z,7.53
2023-02-19T12:41:14.740Z,7.53
2023-02-19T12:42:14.738Z,7.51
2023-02-19T12:43:14.729Z,7.54
2023-02-19T12:44:14.712Z,7.58
2023-02-19T12:45:35.808Z,7.67
2023-02-19T12:46:14.932Z,7.79
2023-02-19T12:47:14.680Z,7.76
2023-02-19T12:48:14.681Z,7.67
2023-02-19T12:49:14.661Z,7.67
2023-02-19T12:50:14.705Z,7.60
2023-02-19T12:51:35.644Z,7.67
2023-02-19T12:52:14.629Z,7.58
2023-02-19T12:53:14.617Z,7.43
2023-02-19T12:54:14.611Z,7.28
2023-02-19T12:55:14.596Z,7.20
2023-02-19T12:56:14.585Z,7.25
2023-02-19T12:57:35.578Z,7.29
2023-02-19T12:58:14.567Z,7.24
2023-02-19T12:59:14.557Z,7.20
2023-02-19T13:00:14.545Z,7.23
2023-02-19T13:01:14.565Z,7.31
2023-02-19T13:02:14.543Z,7.17
2023-02-19T13:03:35.522Z,7.11
2023-02-19T13:04:14.506Z,7.25
2023-02-19T13:05:14.492Z,7.18
2023-02-19T13:06:15.007Z,7.24
2023-02-19T13:07:14.470Z,7.14
2023-02-19T13:08:14.460Z,7.15
2023-02-19T13:09:35.451Z,7.17
2023-02-19T13:10:14.456Z,7.33
2023-02-19T13:11:14.624Z,7.14
2023-02-19T13:12:14.422Z,7.15
2023-02-19T13:13:14.404Z,7.18
2023-02-19T13:14:14.398Z,7.17
2023-02-19T13:15:35.387Z,7.17
2023-02-19T13:16:17.332Z,7.07
2023-02-19T13:17:14.359Z,7.02
2023-02-19T13:18:14.359Z,6.93